createdAt,value
2019-05-06T00:03:13.923Z,95223.23
2019-05-06T00:08:15.977Z,95218.81
2019-05-06T00:13:18.115Z,95215.55
2019-05-06T00:18:19.477Z,95210.63
2019-05-06T00:23:21.701Z,95215.19
2019-05-06T00:28:26.683Z,95217.80
2019-05-06T00:33:28.149Z,95217.58
2019-05-06T00:38:29.484Z,95220.23
2019-05-06T00:43:31.585Z,95221.26
2019-05-06T00:48:34.094Z,95224.55
2019-05-06T00:53:35.133Z,95225.64
2019-05-06T00:58:36.427Z,95221.30
2019-05-06T01:03:37.806Z,95220.49
2019-05-06T01:08:39.162Z,95222.16
2019-05-06T01:13:41.430Z,95227.22
2019-05-06T01:18:43.483Z,95236.59
2019-05-06T01:23:44.177Z,95242.70
2019-05-06T01:28:45.547Z,95240.07
2019-05-06T01:33:46.927Z,95243.55
2019-05-06T01:38:48.282Z,95251.59
2019-05-06T01:43:49.625Z,95247.75
2019-05-06T01:48:50.961Z,95246.17
2019-05-06T01:53:54.186Z,95251.81
2019-05-06T01:58:53.784Z,95242.27
2019-05-06T02:03:55.064Z,95247.06
2019-05-06T02:08:56.400Z,95246.38
2019-05-06T02:13:58.487Z,95257.76
2019-05-06T02:19:00.577Z,95262.33
2019-05-06T02:24:08.259Z,95262.74
2019-05-06T02:29:11.543Z,95266.98
2019-05-06T02:34:15.864Z,95264.30
2019-05-06T02:39:17.284Z,95276.03
2019-05-06T02:44:19.350Z,95288.04
2019-05-06T02:49:35.637Z,95282.28
2019-05-06T02:54:36.925Z,95283.09
2019-05-06T02:59:38.257Z,95284.31
2019-05-06T03:04:39.582Z,95284.88
2019-05-06T03:09:40.895Z,95287.28
2019-05-06T03:14:43.629Z,95299.55
2019-05-06T03:19:46.005Z,95308.15
2019-05-06T03:24:44.975Z,95308.48
2019-05-06T03:29:46.327Z,95303.80
2019-05-06T03:35:07.745Z,95306.17
2019-05-06T03:39:49.025Z,95317.08
2019-05-06T03:44:52.968Z,95314.35
2019-05-06T03:49:54.476Z,95313.84
2019-05-06T03:54:53.862Z,95328.37
2019-05-06T03:59:55.171Z,95330.92
2019-05-06T04:04:57.034Z,95330.27
2019-05-06T04:09:57.863Z,95329.31
2019-05-06T04:14:59.222Z,95338.63
2019-05-06T04:20:03.980Z,95342.64
2019-05-06T04:25:09.405Z,95340.64
2019-05-06T04:30:13.264Z,95345.94
2019-05-06T04:35:13.461Z,95352.72
2019-05-06T04:40:13.695Z,95350.36
2019-05-06T04:45:17.365Z,95355.49
2019-05-06T04:50:16.423Z,95361.91
2019-05-06T04:55:17.785Z,95369.39
2019-05-06T05:00:19.122Z,95365.00
2019-05-06T05:05:23.148Z,95365.20
2019-05-06T05:10:23.452Z,95372.63
2019-05-06T05:20:57.413Z,95375.76
2019-05-06T05:25:58.750Z,95379.11
2019-05-06T05:31:00.105Z,95378.54
2019-05-06T05:36:02.071Z,95384.91
2019-05-06T05:41:03.167Z,95384.16
2019-05-06T05:46:04.154Z,95402.18
2019-05-06T05:51:05.537Z,95401.70
2019-05-06T05:56:06.842Z,95398.95
2019-05-06T06:01:08.210Z,95404.52
2019-05-06T06:06:09.557Z,95400.08
2019-05-06T06:11:12.250Z,95400.98
2019-05-06T06:16:17.802Z,95407.98
2019-05-06T06:21:27.650Z,95408.17
2019-05-06T06:26:23.578Z,95407.36
2019-05-06T06:31:25.738Z,95404.59
2019-05-06T06:36:29.052Z,95402.41
2019-05-06T06:41:32.214Z,95404.25
2019-05-06T06:46:32.407Z,95401.55
2019-05-06T06:51:33.282Z,95406.01
2019-05-06T07:02:02.818Z,95405.84
2019-05-06T07:07:03.761Z,95410.17
2019-05-06T07:12:05.241Z,95413.82
2019-05-06T07:17:06.565Z,95412.95
2019-05-06T07:22:07.929Z,95415.68
2019-05-06T07:27:12.409Z,95415.45
2019-05-06T07:32:12.275Z,95410.38
2019-05-06T07:37:13.737Z,95407.22
2019-05-06T07:42:16.849Z,95411.95
2019-05-06T07:47:23.771Z,95412.64
2019-05-06T07:52:23.198Z,95413.20
2019-05-06T07:57:24.497Z,95413.73
2019-05-06T08:02:26.618Z,95414.52
2019-05-06T08:07:28.034Z,95403.72
2019-05-06T08:12:29.376Z,95406.09
2019-05-06T08:17:32.928Z,95405.99
2019-05-06T08:28:03.433Z,95398.90
2019-05-06T08:33:04.826Z,95403.84
2019-05-06T08:38:06.177Z,95405.25
2019-05-06T08:43:07.516Z,95409.03
2019-05-06T08:48:09.453Z,95396.41
2019-05-06T08:58:44.240Z,95406.34
2019-05-06T09:03:46.488Z,95393.72
2019-05-06T09:08:48.065Z,95404.06
2019-05-06T09:13:49.429Z,95397.84
2019-05-06T09:18:53.088Z,95402.28
2019-05-06T09:23:53.144Z,95409.22
2019-05-06T09:28:53.526Z,95400.72
2019-05-06T09:33:55.621Z,95402.08
2019-05-06T09:38:56.985Z,95392.52
2019-05-06T09:43:58.332Z,95399.32
2019-05-06T09:49:07.714Z,95404.77
2019-05-06T09:54:09.067Z,95390.92
2019-05-06T09:59:12.767Z,95395.95
2019-05-06T10:04:13.089Z,95390.42
2019-05-06T10:09:15.907Z,95384.63
2019-05-06T10:14:14.606Z,95381.52
2019-05-06T10:19:15.970Z,95375.78
2019-05-06T10:24:17.331Z,95379.08
2019-05-06T10:29:22.449Z,95389.87
2019-05-06T10:34:23.865Z,95378.71
2019-05-06T10:39:25.322Z,95377.12
2019-05-06T10:44:45.359Z,95390.93
2019-05-06T10:49:46.680Z,95382.14
2019-05-06T10:54:48.010Z,95384.17
2019-05-06T10:59:49.470Z,95394.75
2019-05-06T11:04:52.830Z,95407.83
2019-05-06T11:09:53.471Z,95399.44
2019-05-06T11:14:55.845Z,95408.56
2019-05-06T11:19:56.140Z,95400.52
2019-05-06T11:24:57.501Z,95402.95
2019-05-06T11:29:58.846Z,95396.53
2019-05-06T11:35:03.480Z,95401.82
2019-05-06T11:40:02.399Z,95396.45
2019-05-06T11:45:03.770Z,95402.53
2019-05-06T11:50:06.181Z,95403.28
2019-05-06T11:55:08.345Z,95399.56
2019-05-06T12:00:10.350Z,95407.23
2019-05-06T12:05:11.442Z,95415.56
2019-05-06T12:10:13.037Z,95411.04
2019-05-06T12:15:14.323Z,95430.34
2019-05-06T12:20:16.422Z,95422.60
2019-05-06T12:25:18.515Z,95426.50
2019-05-06T12:30:19.976Z,95439.78
2019-05-06T12:35:21.338Z,95433.28
2019-05-06T12:40:22.751Z,95419.18
2019-05-06T12:45:24.142Z,95421.92
2019-05-06T12:50:25.515Z,95423.23
2019-05-06T12:55:27.949Z,95426.05
2019-05-06T13:00:29.315Z,95421.77
2019-05-06T13:05:31.946Z,95430.89
2019-05-06T13:10:33.525Z,95427.58
2019-05-06T13:15:34.494Z,95421.74
2019-05-06T13:20:36.596Z,95422.33
2019-05-06T13:25:38.013Z,95430.36
2019-05-06T13:30:39.389Z,95433.97
2019-05-06T13:35:41.920Z,95419.84
2019-05-06T13:40:54.096Z,95427.03
2019-05-06T13:45:46.234Z,95421.19
2019-05-06T13:50:47.597Z,95413.20
2019-05-06T13:55:49.468Z,95417.39
2019-05-06T14:00:51.977Z,95418.37
2019-05-06T14:05:52.235Z,95422.42
2019-05-06T14:10:59.588Z,95417.68
2019-05-06T14:15:55.749Z,95427.78
2019-05-06T14:20:57.086Z,95424.91
2019-05-06T14:26:03.957Z,95421.84
2019-05-06T14:36:33.680Z,95427.64
2019-05-06T14:41:35.054Z,95439.94
2019-05-06T14:46:43.214Z,95430.98
2019-05-06T14:51:44.570Z,95431.39
2019-05-06T15:02:18.272Z,95437.02
2019-05-06T15:07:21.907Z,95439.94
2019-05-06T15:12:22.965Z,95451.17
2019-05-06T15:17:23.345Z,95451.91
2019-05-06T15:22:24.676Z,95457.03
2019-05-06T15:27:26.793Z,95449.73
2019-05-06T15:32:28.168Z,95454.27
2019-05-06T15:37:43.320Z,95459.73
2019-05-06T15:42:44.652Z,95461.77
2019-05-06T15:47:46.006Z,95458.94
2019-05-06T15:52:47.334Z,95448.42
2019-05-06T15:57:48.766Z,95454.69
2019-05-06T16:02:52.966Z,95456.98
2019-05-06T16:07:57.460Z,95451.67
2019-05-06T16:12:59.616Z,95458.57
2019-05-06T16:18:02.233Z,95453.30
2019-05-06T16:23:08.338Z,95446.23
2019-05-06T16:28:09.710Z,95452.13
2019-05-06T16:33:12.149Z,95450.16
2019-05-06T16:38:13.130Z,95445.86
2019-05-06T16:43:13.839Z,95468.78
2019-05-06T16:48:15.926Z,95461.88
2019-05-06T16:53:17.289Z,95466.63
2019-05-06T16:58:19.413Z,95475.34
2019-05-06T17:03:29.165Z,95468.41
2019-05-06T17:08:33.343Z,95470.23
2019-05-06T17:13:33.998Z,95473.52
2019-05-06T17:18:34.132Z,95478.88
2019-05-06T17:23:35.495Z,95480.89
2019-05-06T17:28:41.664Z,95499.25
2019-05-06T17:33:43.061Z,95489.30
2019-05-06T17:38:48.030Z,95493.70
2019-05-06T17:43:49.373Z,95490.53
2019-05-06T17:54:22.149Z,95496.61
2019-05-06T17:59:22.154Z,95497.59
2019-05-06T18:04:24.247Z,95506.73
2019-05-06T18:09:25.587Z,95511.64
2019-05-06T18:14:27.691Z,95510.27
2019-05-06T18:19:29.056Z,95518.87
2019-05-06T18:24:30.479Z,95524.41
2019-05-06T18:29:33.498Z,95529.26
2019-05-06T18:34:33.390Z,95526.34
2019-05-06T18:39:34.638Z,95537.24
2019-05-06T18:44:36.016Z,95541.45
2019-05-06T18:49:37.444Z,95545.95
2019-05-06T18:54:38.759Z,95546.72
2019-05-06T18:59:42.070Z,95557.58
2019-05-06T19:04:41.922Z,95561.14
2019-05-06T19:09:43.923Z,95570.14
2019-05-06T19:14:45.288Z,95578.23
2019-05-06T19:19:46.596Z,95583.88
2019-05-06T19:24:47.915Z,95584.24
2019-05-06T19:29:49.306Z,95588.69
2019-05-06T19:34:52.841Z,95594.84
2019-05-06T19:39:52.540Z,95594.94
2019-05-06T19:44:54.066Z,95599.13
2019-05-06T19:49:56.101Z,95598.16
2019-05-06T19:54:57.421Z,95599.78
2019-05-06T19:59:58.738Z,95595.91
2019-05-06T20:05:03.189Z,95601.67
2019-05-06T20:10:14.121Z,95602.59
2019-05-06T20:15:22.265Z,95604.39
2019-05-06T20:20:23.600Z,95606.64
2019-05-06T20:25:25.782Z,95592.27
2019-05-06T20:30:27.184Z,95596.63
2019-05-06T20:35:52.422Z,95590.45
2019-05-06T20:40:51.874Z,95589.05
2019-05-06T20:45:55.427Z,95587.95
2019-05-06T20:51:00.159Z,95590.67
2019-05-06T20:56:05.241Z,95585.03
2019-05-06T21:01:08.726Z,95580.94
2019-05-06T21:06:14.181Z,95583.00
2019-05-06T21:11:26.542Z,95579.08
2019-05-06T21:16:24.293Z,95576.45
2019-05-06T21:21:28.603Z,95580.63
2019-05-06T21:26:33.128Z,95577.02
2019-05-06T21:31:35.692Z,95577.73
2019-05-06T21:36:42.058Z,95576.03
2019-05-06T21:41:42.737Z,95572.45
2019-05-06T21:46:45.255Z,95571.81
2019-05-06T21:51:50.351Z,95573.55
2019-05-06T21:56:53.358Z,95567.00
2019-05-06T22:01:54.539Z,95562.56
2019-05-06T22:06:55.892Z,95555.73
2019-05-06T22:11:57.861Z,95553.70
2019-05-06T22:16:59.232Z,95557.63
2019-05-06T22:22:00.580Z,95548.44
2019-05-06T22:27:02.864Z,95541.89
2019-05-06T22:32:03.315Z,95546.73
2019-05-06T22:37:04.639Z,95544.92
2019-05-06T22:42:05.950Z,95538.16
2019-05-06T22:47:07.285Z,95536.69
2019-05-06T22:52:09.053Z,95530.16
2019-05-06T22:57:12.032Z,95532.35
2019-05-06T23:02:13.720Z,95537.67
2019-05-06T23:07:15.028Z,95525.53
2019-05-06T23:12:16.369Z,95531.38
2019-05-06T23:17:17.697Z,95527.86
2019-05-06T23:22:19.745Z,95522.61
2019-05-06T23:27:23.279Z,95520.23
2019-05-06T23:32:22.993Z,95524.14
2019-05-06T23:37:23.724Z,95526.16
2019-05-06T23:42:43.620Z,95530.08
2019-05-06T23:48:04.448Z,95519.13
2019-05-06T23:53:24.340Z,95516.70
2019-05-06T23:58:25.402Z,95514.88
